Time;durP1;ratioP1;P1;durP2;ratioP2;P2;SDS_P1;SDS_P2;PMS_P1;PMS_P2;Temp;Humidity;BMP_temperature;BMP_pressure;BME280_temperature;BME280_humidity;BME280_pressure;Samples;Min_cycle;Max_cycle;Signal;HPM_P1;HPM_P2
2021/11/25 00:01:33;;;;;;;16.20;5.95;;;;;;;8.60;45.90;101193.13;4998404;28;20467;-57
2021/11/25 00:03:59;;;;;;;14.30;5.07;;;;;;;8.63;45.51;101192.03;4997854;28;20026;-58
2021/11/25 00:06:24;;;;;;;9.38;5.55;;;;;;;8.59;46.08;101175.41;4998287;28;20406;-57
2021/11/25 00:08:50;;;;;;;11.63;4.80;;;;;;;8.63;45.13;101182.22;4997869;28;20105;-56
2021/11/25 00:11:15;;;;;;;9.65;5.35;;;;;;;8.70;45.02;101188.84;4997024;28;20034;-57
2021/11/25 00:13:40;;;;;;;8.30;5.82;;;;;;;8.71;45.58;101187.88;4997526;28;20034;-56
2021/11/25 00:16:06;;;;;;;8.80;5.97;;;;;;;8.76;45.07;101176.88;4997456;28;20078;-57
2021/11/25 00:18:32;;;;;;;10.98;5.55;;;;;;;8.79;45.53;101161.47;4996908;28;20395;-57
2021/11/25 00:20:57;;;;;;;8.25;5.78;;;;;;;8.84;45.82;101163.84;4996494;28;20030;-58
2021/11/25 00:23:22;;;;;;;9.70;5.80;;;;;;;8.88;45.52;101159.13;4996658;28;20030;-58
2021/11/25 00:32:25;;;;;;;10.98;5.97;;;;;;;8.96;46.47;101159.44;4998542;28;20061;-59
2021/11/25 00:34:50;;;;;;;15.85;5.82;;;;;;;8.98;46.21;101150.34;4997712;28;20467;-58
2021/11/25 00:37:16;;;;;;;8.45;5.40;;;;;;;9.04;45.21;101157.91;4997660;28;20030;-57
2021/11/25 00:39:41;;;;;;;10.65;5.65;;;;;;;9.07;45.53;101155.00;4995799;28;20044;-57
2021/11/25 00:42:07;;;;;;;8.60;5.53;;;;;;;9.07;45.94;101146.16;4997271;28;20109;-58
2021/11/25 00:44:32;;;;;;;11.10;6.15;;;;;;;9.06;45.42;101141.75;4997464;28;20033;-59
2021/11/25 00:46:57;;;;;;;12.38;6.40;;;;;;;9.05;45.32;101150.72;4997356;28;20117;-58
2021/11/25 00:49:23;;;;;;;10.80;5.97;;;;;;;9.02;45.33;101150.94;4996069;28;20116;-58
2021/11/25 00:51:48;;;;;;;11.93;5.93;;;;;;;8.99;46.17;101145.84;4997786;28;20459;-57
2021/11/25 00:54:14;;;;;;;8.63;5.45;;;;;;;8.90;46.16;101135.81;4997075;28;20030;-57
2021/11/25 00:56:39;;;;;;;11.32;5.95;;;;;;;8.89;45.60;101139.44;4997507;28;20038;-57
2021/11/25 00:59:05;;;;;;;10.80;5.85;;;;;;;8.90;46.37;101135.81;4979916;28;20038;-58
2021/11/25 01:01:30;;;;;;;8.13;5.32;;;;;;;8.88;45.62;101143.94;4997061;28;20105;-58
2021/11/25 01:03:56;;;;;;;11.73;5.32;;;;;;;8.84;45.28;101136.25;4997946;28;20027;-57
2021/11/25 01:06:21;;;;;;;13.02;5.72;;;;;;;8.83;45.97;101138.06;4997244;28;20459;-57
2021/11/25 01:08:46;;;;;;;12.25;5.90;;;;;;;8.82;45.46;101138.19;4997072;28;20042;-58
2021/11/25 01:11:12;;;;;;;8.93;5.32;;;;;;;8.82;45.42;101132.84;4996817;28;20042;-57
2021/11/25 01:13:38;;;;;;;10.88;5.70;;;;;;;8.82;46.05;101138.19;4979495;28;20066;-57
2021/11/25 01:16:03;;;;;;;9.88;4.75;;;;;;;8.81;45.33;101128.47;4997139;28;20034;-57
2021/11/25 01:18:29;;;;;;;10.43;5.78;;;;;;;8.80;46.04;101135.63;4995388;28;20030;-57
2021/11/25 01:20:54;;;;;;;9.75;4.90;;;;;;;8.81;45.55;101133.81;4995528;28;20096;-57
2021/11/25 01:23:23;;;;;;;9.27;5.78;;;;;;;8.82;45.58;101128.38;4996594;28;20379;-57
2021/11/25 01:25:50;;;;;;;11.40;6.05;;;;;;;8.83;46.25;101129.22;4996245;28;20138;-57
2021/11/25 01:28:15;;;;;;;7.35;5.43;;;;;;;8.85;45.46;101130.81;4994673;28;20039;-57
2021/11/25 01:30:50;;;;;;;9.45;5.40;;;;;;;8.84;46.54;101120.25;4996380;28;20038;-58
2021/11/25 01:33:16;;;;;;;7.97;5.03;;;;;;;8.90;46.17;101123.34;4994522;28;20450;-57
2021/11/25 01:35:42;;;;;;;13.15;6.65;;;;;;;8.87;46.28;101120.03;4996073;28;20030;-58
2021/11/25 01:38:07;;;;;;;9.38;4.88;;;;;;;8.92;46.67;101131.22;4996287;28;20093;-56
2021/11/25 01:40:34;;;;;;;13.80;5.78;;;;;;;8.92;46.01;101129.41;4996672;28;20372;-57
2021/11/25 01:42:59;;;;;;;11.65;5.95;;;;;;;8.92;45.26;101125.88;4996129;28;20062;-58
2021/11/25 01:45:26;;;;;;;10.88;5.80;;;;;;;8.92;45.85;101128.56;4994520;28;20053;-57
2021/11/25 01:47:53;;;;;;;10.00;5.47;;;;;;;8.91;46.30;101140.19;4996251;28;20490;-56
2021/11/25 01:50:19;;;;;;;8.88;5.50;;;;;;;8.96;46.47;101138.06;4994559;28;20113;-56
2021/11/25 01:52:45;;;;;;;10.25;5.82;;;;;;;8.98;46.55;101134.31;4994862;28;20497;-57
2021/11/25 01:55:14;;;;;;;8.38;5.50;;;;;;;9.00;46.23;101129.69;4994428;28;20109;-57
2021/11/25 01:57:39;;;;;;;12.18;6.03;;;;;;;9.00;46.62;101119.00;4995907;28;20033;-58
2021/11/25 02:00:14;;;;;;;14.65;6.97;;;;;;;8.96;45.47;101116.69;4995883;28;20109;-57
2021/11/25 02:02:40;;;;;;;8.80;5.47;;;;;;;8.96;45.68;101130.03;4996152;28;20053;-57
2021/11/25 02:05:06;;;;;;;11.18;5.22;;;;;;;8.95;45.89;101123.84;4996093;28;20038;-56
2021/11/25 02:07:31;;;;;;;11.18;5.78;;;;;;;8.92;45.99;101117.88;4995548;28;20030;-58
2021/11/25 02:09:57;;;;;;;8.95;4.80;;;;;;;8.89;46.12;101112.75;4994349;28;20061;-57
2021/11/25 02:12:22;;;;;;;10.10;5.53;;;;;;;8.71;46.07;101083.72;4994129;28;20038;-57
2021/11/25 02:14:47;;;;;;;10.93;5.43;;;;;;;8.82;45.33;101114.16;4995131;28;20033;-57
2021/11/25 02:17:13;;;;;;;8.57;5.40;;;;;;;8.75;45.62;101103.91;4995623;28;20041;-57
2021/11/25 02:19:42;;;;;;;9.15;5.38;;;;;;;8.72;46.25;101096.13;4994375;28;20034;-57
2021/11/25 02:22:07;;;;;;;9.30;5.43;;;;;;;8.67;46.25;101097.41;4995291;28;20030;-57
2021/11/25 02:24:33;;;;;;;11.25;5.72;;;;;;;8.64;46.29;101093.16;4995799;28;20462;-57
2021/11/25 02:26:59;;;;;;;10.70;5.85;;;;;;;8.56;45.84;101084.84;4993633;28;20058;-57
2021/11/25 02:29:25;;;;;;;11.35;5.50;;;;;;;8.56;46.45;101084.84;4977929;28;20410;-57
2021/11/25 02:31:51;;;;;;;10.98;5.75;;;;;;;8.55;46.25;101084.94;4994147;28;20030;-57
2021/11/25 02:34:16;;;;;;;10.95;6.35;;;;;;;8.53;45.37;101084.22;4995394;28;20030;-58
2021/11/25 02:36:42;;;;;;;13.30;5.45;;;;;;;8.52;46.33;101094.03;4994211;28;20026;-57
2021/11/25 02:39:07;;;;;;;10.25;5.88;;;;;;;8.53;45.73;101079.72;4995512;28;20093;-58
2021/11/25 02:41:32;;;;;;;12.18;5.72;;;;;;;8.54;45.76;101092.09;4995310;28;20034;-57
2021/11/25 02:43:58;;;;;;;9.73;5.47;;;;;;;8.54;45.64;101097.44;4995330;28;20452;-59
2021/11/25 02:46:23;;;;;;;9.35;4.68;;;;;;;8.55;46.69;101099.16;4993886;28;20030;-55
2021/11/25 02:48:51;;;;;;;14.93;5.60;;;;;;;8.53;45.57;101092.22;4993936;28;20035;-56
2021/11/25 02:51:23;;;;;;;13.30;6.38;;;;;;;8.51;45.61;101087.00;4997140;28;20030;-56
2021/11/25 02:53:48;;;;;;;9.50;5.50;;;;;;;8.48;45.99;101084.56;4998885;28;20027;-56
2021/11/25 02:56:21;;;;;;;10.60;5.85;;;;;;;8.47;45.62;101077.50;4998692;28;20030;-56
2021/11/25 02:58:48;;;;;;;11.80;6.05;;;;;;;8.45;45.60;101071.44;4999657;28;20471;-56
2021/11/25 03:01:19;;;;;;;8.90;5.32;;;;;;;8.38;45.84;101062.13;4999246;28;20114;-56
2021/11/25 03:03:45;;;;;;;9.82;5.93;;;;;;;8.40;45.18;101068.22;4999068;28;20026;-56
2021/11/25 03:06:11;;;;;;;11.50;5.97;;;;;;;8.43;46.78;101073.31;4998920;28;20036;-57
2021/11/25 03:08:37;;;;;;;8.32;5.25;;;;;;;8.44;46.12;101067.03;4997391;28;20034;-57
2021/11/25 03:11:14;;;;;;;9.07;5.43;;;;;;;8.30;45.40;101035.13;4998863;28;20080;-57
2021/11/25 03:13:41;;;;;;;10.13;5.63;;;;;;;8.42;46.67;101054.75;4998659;28;20045;-57
2021/11/25 03:16:09;;;;;;;7.95;5.65;;;;;;;8.39;45.53;101055.84;4998977;28;20027;-57
2021/11/25 03:18:35;;;;;;;13.95;5.95;;;;;;;8.36;46.21;101055.19;4998801;28;20033;-56
2021/11/25 03:21:00;;;;;;;9.60;5.55;;;;;;;8.33;46.61;101058.94;4999057;28;20034;-57
2021/11/25 03:23:28;;;;;;;10.65;5.90;;;;;;;8.27;45.38;101051.38;4998469;28;20495;-56
2021/11/25 03:25:55;;;;;;;10.15;5.72;;;;;;;8.27;46.41;101055.81;4997451;28;20405;-56
2021/11/25 03:28:21;;;;;;;9.88;6.53;;;;;;;8.26;45.15;101065.66;4997485;28;20057;-56
2021/11/25 03:30:53;;;;;;;13.45;6.65;;;;;;;8.25;46.48;101049.75;4998623;28;20026;-56
2021/11/25 03:33:19;;;;;;;9.15;5.43;;;;;;;8.25;46.23;101060.41;4997509;28;20034;-55
2021/11/25 03:35:45;;;;;;;14.02;5.65;;;;;;;8.25;46.56;101061.28;4998636;28;20505;-57
2021/11/25 03:38:10;;;;;;;14.20;6.10;;;;;;;8.24;45.80;101051.56;4998387;28;20038;-57
2021/11/25 03:40:35;;;;;;;9.95;5.85;;;;;;;8.21;46.14;101057.09;4981087;28;20121;-56
2021/11/25 03:43:01;;;;;;;11.32;6.10;;;;;;;8.19;46.11;101053.69;4998081;28;20041;-56
2021/11/25 03:45:26;;;;;;;12.02;6.30;;;;;;;8.17;46.45;101055.63;4998053;28;20031;-56
2021/11/25 03:47:52;;;;;;;12.88;5.90;;;;;;;8.20;46.29;101052.75;4981958;28;20034;-58
2021/11/25 03:50:17;;;;;;;12.80;5.38;;;;;;;8.19;45.79;101041.22;4981469;28;20398;-58
2021/11/25 03:52:43;;;;;;;7.75;5.40;;;;;;;8.14;45.68;101035.34;4998460;28;20058;-58
2021/11/25 03:55:10;;;;;;;8.50;5.45;;;;;;;8.21;46.09;101041.09;4980749;28;20538;-57
2021/11/25 03:57:37;;;;;;;12.60;5.80;;;;;;;8.21;45.67;101041.09;4998453;28;20030;-57
2021/11/25 04:00:08;;;;;;;15.30;7.05;;;;;;;8.19;46.05;101032.34;4996695;28;20471;-57
2021/11/25 04:02:33;;;;;;;14.98;5.60;;;;;;;8.18;46.38;101035.97;4996892;28;20030;-56
2021/11/25 04:04:59;;;;;;;10.25;4.88;;;;;;;8.15;46.58;101025.53;4998357;28;20038;-56
2021/11/25 04:07:24;;;;;;;9.40;5.90;;;;;;;8.14;46.73;101019.34;4996922;28;20030;-58
2021/11/25 04:09:49;;;;;;;8.95;4.97;;;;;;;8.12;46.17;101020.44;4997454;28;20389;-58
2021/11/25 04:12:15;;;;;;;13.68;5.95;;;;;;;8.10;46.31;101023.19;4997406;28;20034;-57
2021/11/25 04:14:40;;;;;;;7.53;4.63;;;;;;;8.07;45.17;101019.88;4998402;28;20027;-57
2021/11/25 04:17:05;;;;;;;12.77;5.78;;;;;;;8.05;45.63;101019.13;4996972;28;20034;-58
2021/11/25 04:19:31;;;;;;;11.93;5.63;;;;;;;8.04;46.71;101020.13;4998299;28;20475;-57
2021/11/25 04:21:57;;;;;;;10.45;5.43;;;;;;;7.99;46.18;101006.22;4998985;28;20022;-57
2021/11/25 04:24:22;;;;;;;9.60;6.13;;;;;;;8.00;45.57;101018.63;4997096;28;20088;-59
2021/11/25 04:26:47;;;;;;;10.82;5.88;;;;;;;7.98;45.70;101023.22;4998130;28;20057;-56
2021/11/25 04:29:14;;;;;;;7.35;5.25;;;;;;;7.96;45.62;101014.44;4996360;28;20034;-57
2021/11/25 04:37:10;;;;;;;10.15;5.53;;;;;;;7.90;46.14;101021.06;4997598;28;20108;-57
2021/11/25 04:39:36;;;;;;;9.68;5.95;;;;;;;7.89;45.61;101023.84;4996270;28;20430;-58
2021/11/25 04:42:02;;;;;;;11.65;6.50;;;;;;;7.83;46.18;101008.28;4996631;28;20041;-56
2021/11/25 04:44:27;;;;;;;12.07;6.43;;;;;;;7.86;46.66;101018.72;4996148;28;20033;-57
2021/11/25 04:46:52;;;;;;;10.02;5.20;;;;;;;7.85;45.21;101011.69;4997047;28;20031;-58
2021/11/25 04:49:18;;;;;;;10.35;4.88;;;;;;;7.84;45.53;101015.31;4998154;28;20026;-57
2021/11/25 04:51:44;;;;;;;15.25;5.75;;;;;;;7.79;45.73;101012.97;4996502;28;20061;-57
2021/11/25 04:54:09;;;;;;;12.13;5.75;;;;;;;7.81;46.29;101026.19;4997082;28;20054;-56
2021/11/25 04:56:35;;;;;;;9.82;6.00;;;;;;;7.80;46.53;101027.16;4995663;28;20026;-57
2021/11/25 04:59:00;;;;;;;12.93;6.15;;;;;;;7.79;45.51;101033.47;4996088;28;20084;-57
2021/11/25 05:01:26;;;;;;;10.98;5.57;;;;;;;7.79;45.10;101025.47;4979814;28;20026;-57
2021/11/25 05:03:51;;;;;;;14.70;6.00;;;;;;;7.80;45.59;101035.16;4996932;28;20390;-56
2021/11/25 05:06:17;;;;;;;9.68;6.20;;;;;;;7.75;45.53;101031.97;4995625;28;20471;-57
2021/11/25 05:08:42;;;;;;;12.95;6.60;;;;;;;7.76;45.17;101047.00;4995499;28;20364;-57
2021/11/25 05:11:08;;;;;;;10.50;5.57;;;;;;;7.75;45.23;101042.63;4997148;28;20479;-57
2021/11/25 05:13:33;;;;;;;11.70;5.72;;;;;;;7.74;45.29;101044.44;4997464;28;20026;-57
2021/11/25 05:16:00;;;;;;;11.65;5.95;;;;;;;7.70;46.55;101050.09;4995820;28;20026;-56
2021/11/25 05:18:27;;;;;;;11.77;5.60;;;;;;;7.72;45.62;101034.84;4997576;28;20034;-56
2021/11/25 05:20:52;;;;;;;13.50;6.30;;;;;;;7.76;46.58;101031.00;4995777;28;20037;-58
2021/11/25 05:23:17;;;;;;;12.90;5.72;;;;;;;7.75;45.69;101037.28;4996096;28;20483;-57
2021/11/25 05:25:43;;;;;;;8.95;6.07;;;;;;;7.74;45.29;101040.91;4997017;28;20046;-57
2021/11/25 05:28:08;;;;;;;10.05;5.90;;;;;;;7.67;45.93;101029.84;4980088;28;20033;-57
2021/11/25 05:30:34;;;;;;;8.07;4.70;;;;;;;7.70;46.01;101047.41;4995065;28;20029;-57
2021/11/25 05:33:00;;;;;;;17.17;6.15;;;;;;;7.68;46.00;101036.03;4996234;28;20483;-57
2021/11/25 05:35:26;;;;;;;11.18;5.63;;;;;;;7.65;45.14;101025.56;4995297;28;20050;-58
2021/11/25 05:37:52;;;;;;;10.20;4.93;;;;;;;7.61;45.69;101028.44;4995338;28;20479;-57
2021/11/25 05:40:18;;;;;;;11.48;5.75;;;;;;;7.61;45.58;101028.44;4995877;28;20428;-57
2021/11/25 05:42:44;;;;;;;10.10;5.75;;;;;;;7.54;45.14;101019.13;4996280;28;20084;-57
2021/11/25 05:45:11;;;;;;;12.32;5.72;;;;;;;7.57;46.03;101024.25;4995150;28;20022;-56
2021/11/25 05:47:38;;;;;;;9.32;5.05;;;;;;;7.57;45.79;101023.41;4996626;28;20030;-57
2021/11/25 05:50:10;;;;;;;11.10;5.25;;;;;;;7.55;45.16;101015.53;4994635;28;20033;-57
2021/11/25 05:52:36;;;;;;;7.90;5.68;;;;;;;7.54;46.17;101023.63;4996548;28;20041;-57
2021/11/25 05:55:03;;;;;;;12.27;5.93;;;;;;;7.54;45.24;101019.13;4994899;28;20048;-57
2021/11/25 05:57:29;;;;;;;11.00;5.47;;;;;;;7.53;45.62;101016.59;4995938;28;20034;-57
2021/11/25 05:59:54;;;;;;;7.97;5.00;;;;;;;7.49;45.92;101013.28;4995854;28;20041;-57
2021/11/25 06:02:20;;;;;;;9.57;5.25;;;;;;;7.50;46.23;101012.34;4994602;28;20031;-56
2021/11/25 06:04:47;;;;;;;11.93;6.13;;;;;;;7.55;46.36;101015.53;4962470;28;20026;-57
2021/11/25 06:07:13;;;;;;;12.85;6.32;;;;;;;7.51;46.24;101011.34;4995827;28;20038;-57
2021/11/25 06:09:39;;;;;;;9.88;5.78;;;;;;;7.56;46.36;101009.25;4995917;28;20386;-57
2021/11/25 06:12:05;;;;;;;12.45;6.03;;;;;;;7.55;45.02;101012.88;4995527;28;20030;-57
2021/11/25 06:14:32;;;;;;;10.95;6.15;;;;;;;7.58;45.68;101010.00;4995919;28;20544;-57
2021/11/25 06:16:57;;;;;;;12.43;5.78;;;;;;;7.58;45.88;101012.66;4995331;28;20033;-57
2021/11/25 06:19:22;;;;;;;15.38;6.20;;;;;;;7.64;46.43;101016.72;4978287;28;20398;-56
2021/11/25 06:21:48;;;;;;;14.88;6.32;;;;;;;7.67;45.63;101012.97;4995357;28;20034;-56
2021/11/25 06:24:13;;;;;;;9.55;5.55;;;;;;;7.68;45.22;101014.69;4995372;28;20030;-56
2021/11/25 06:26:44;;;;;;;11.25;5.53;;;;;;;7.70;46.48;101015.44;4994739;28;20050;-56
2021/11/25 06:29:10;;;;;;;9.65;5.82;;;;;;;7.70;46.47;101002.09;4995562;28;20081;-56
2021/11/25 06:31:35;;;;;;;10.23;5.80;;;;;;;7.70;46.32;101012.75;4995772;28;20022;-57
2021/11/25 06:34:01;;;;;;;13.95;6.72;;;;;;;7.70;45.63;101018.09;4994414;28;20364;-56
2021/11/25 06:36:26;;;;;;;10.80;6.50;;;;;;;7.63;45.56;101010.53;4994238;28;20042;-57
2021/11/25 06:38:51;;;;;;;13.90;6.82;;;;;;;7.71;45.73;101025.97;4995460;28;20026;-57
2021/11/25 06:41:17;;;;;;;11.20;5.38;;;;;;;7.65;45.91;101017.56;4977549;28;20026;-56
2021/11/25 06:43:42;;;;;;;12.75;6.38;;;;;;;7.71;46.50;101030.44;4995098;28;20030;-57
2021/11/25 06:46:08;;;;;;;13.52;7.25;;;;;;;7.69;45.42;101037.72;4993311;28;20037;-58
2021/11/25 06:48:33;;;;;;;12.18;6.93;;;;;;;7.63;46.35;101031.84;4995657;28;20034;-57
2021/11/25 06:50:58;;;;;;;10.07;6.38;;;;;;;7.67;46.19;101034.31;4994818;28;20026;-56
2021/11/25 06:53:26;;;;;;;12.85;5.47;;;;;;;7.63;46.48;101034.50;4994340;28;20037;-57
2021/11/25 06:55:52;;;;;;;13.52;6.90;;;;;;;7.67;45.51;101047.63;4995046;28;20479;-57
2021/11/25 06:58:17;;;;;;;9.15;5.88;;;;;;;7.63;46.67;101039.84;4995596;28;20101;-57
2021/11/25 07:00:42;;;;;;;12.07;5.63;;;;;;;7.69;46.78;101040.38;4995082;28;20550;-57
2021/11/25 07:03:08;;;;;;;9.70;5.75;;;;;;;7.70;46.88;101039.44;4994751;28;20026;-57
2021/11/25 07:05:33;;;;;;;11.52;6.28;;;;;;;7.69;46.34;101035.03;4994873;28;20502;-56
2021/11/25 07:07:58;;;;;;;11.60;7.75;;;;;;;7.76;46.43;101041.66;4993560;28;20030;-58
2021/11/25 07:10:24;;;;;;;20.48;7.07;;;;;;;7.80;46.35;101032.47;4995144;28;20109;-57
2021/11/25 07:12:50;;;;;;;16.50;6.85;;;;;;;7.82;46.13;101034.09;4995968;28;20030;-59
2021/11/25 07:15:17;;;;;;;15.77;7.20;;;;;;;7.86;45.74;101024.06;4994337;28;20044;-56
2021/11/25 07:17:45;;;;;;;10.70;6.15;;;;;;;7.91;46.89;101033.44;4993328;28;20080;-58
2021/11/25 07:20:11;;;;;;;14.43;6.45;;;;;;;7.96;45.52;101030.44;4993662;28;20041;-57
2021/11/25 07:22:38;;;;;;;13.20;6.35;;;;;;;8.01;46.00;101026.50;4994716;28;20387;-57
2021/11/25 07:25:04;;;;;;;19.92;6.90;;;;;;;8.02;45.60;101011.34;4993350;28;20022;-57
2021/11/25 07:27:30;;;;;;;12.13;6.50;;;;;;;8.06;46.16;101021.72;4992857;28;20521;-57
2021/11/25 07:29:55;;;;;;;21.25;7.15;;;;;;;8.12;46.18;101015.91;4993386;28;20022;-58
2021/11/25 07:32:20;;;;;;;14.45;6.13;;;;;;;8.15;47.10;101014.88;4993753;28;20038;-57
2021/11/25 07:34:46;;;;;;;12.30;6.43;;;;;;;8.12;46.74;101004.41;4994219;28;20038;-57
2021/11/25 07:37:11;;;;;;;11.80;6.35;;;;;;;8.19;46.39;101016.34;4996401;28;20033;-57
2021/11/25 07:39:37;;;;;;;10.93;6.45;;;;;;;8.28;46.90;101020.22;4998563;28;20105;-57
2021/11/25 07:42:03;;;;;;;12.20;6.50;;;;;;;8.36;46.16;101028.50;4998516;28;20034;-57
2021/11/25 07:44:28;;;;;;;13.90;7.50;;;;;;;8.44;46.15;101037.69;4998800;28;20026;-57
2021/11/25 07:46:53;;;;;;;14.40;7.15;;;;;;;8.54;46.77;101040.53;4997903;28;20062;-57
2021/11/25 07:49:20;;;;;;;17.35;7.32;;;;;;;8.58;46.57;101029.53;4997766;28;20030;-58
2021/11/25 07:51:46;;;;;;;17.52;7.40;;;;;;;8.68;46.80;101027.88;4998143;28;20034;-57
2021/11/25 07:54:12;;;;;;;13.48;7.20;;;;;;;8.74;47.60;101022.09;4998636;28;20038;-58
2021/11/25 07:56:38;;;;;;;16.20;8.63;;;;;;;8.73;46.97;101006.19;4996389;28;20100;-58
2021/11/25 07:59:04;;;;;;;13.00;7.43;;;;;;;8.87;46.83;101024.72;4997501;28;20117;-57
2021/11/25 08:01:32;;;;;;;16.95;7.65;;;;;;;8.91;46.62;101019.97;4997971;28;20034;-58
2021/11/25 08:03:57;;;;;;;17.40;8.02;;;;;;;8.94;46.84;101014.41;4996378;28;20533;-57
2021/11/25 08:06:22;;;;;;;16.48;7.45;;;;;;;9.02;46.41;101022.72;4997685;28;20031;-58
2021/11/25 08:08:48;;;;;;;16.13;6.53;;;;;;;9.04;46.98;101016.31;4996424;28;20038;-57
2021/11/25 08:11:13;;;;;;;13.63;7.35;;;;;;;9.08;46.09;101011.56;4997238;28;20062;-56
2021/11/25 08:13:38;;;;;;;15.95;7.85;;;;;;;9.06;47.22;100995.66;4996101;28;20085;-61
2021/11/25 08:16:04;;;;;;;15.95;8.63;;;;;;;9.13;46.52;101001.38;4996860;28;20474;-56
2021/11/25 08:18:29;;;;;;;18.83;9.13;;;;;;;9.22;46.82;100998.88;4979503;28;20068;-58
2021/11/25 08:20:55;;;;;;;16.05;9.30;;;;;;;9.25;46.46;101004.00;4996689;28;20038;-59
2021/11/25 08:23:20;;;;;;;18.38;8.57;;;;;;;9.35;46.91;101004.16;4996703;28;20057;-58
2021/11/25 08:25:46;;;;;;;19.23;8.68;;;;;;;9.39;46.96;100994.91;4996282;28;20391;-57
2021/11/25 08:28:11;;;;;;;20.85;8.95;;;;;;;9.48;46.40;100988.00;4979252;28;20113;-57
2021/11/25 08:30:37;;;;;;;11.73;7.43;;;;;;;9.49;46.38;100977.19;4996476;28;20101;-57
2021/11/25 08:33:02;;;;;;;16.73;7.88;;;;;;;9.57;46.64;100996.19;4995766;28;20372;-56
2021/11/25 08:35:28;;;;;;;15.90;8.35;;;;;;;9.60;47.24;100993.28;4996899;28;20495;-56
2021/11/25 08:37:54;;;;;;;18.92;7.85;;;;;;;9.63;47.55;100982.31;4996519;28;20105;-57
2021/11/25 08:40:20;;;;;;;14.23;7.47;;;;;;;9.68;47.28;100979.31;4996478;28;20038;-57
2021/11/25 08:42:47;;;;;;;14.50;8.38;;;;;;;9.66;47.28;100971.38;4995566;28;20027;-57
2021/11/25 08:45:14;;;;;;;20.58;8.38;;;;;;;9.76;47.21;100985.75;4996565;28;20478;-57
2021/11/25 08:47:40;;;;;;;21.27;10.20;;;;;;;9.80;47.46;100973.81;4994590;28;20038;-57
2021/11/25 08:50:07;;;;;;;17.15;7.65;;;;;;;9.81;47.13;100970.19;4995457;28;20034;-58
2021/11/25 08:52:33;;;;;;;19.60;10.25;;;;;;;9.85;47.45;100976.97;4996396;28;20061;-58
2021/11/25 08:54:58;;;;;;;18.25;8.48;;;;;;;9.95;46.51;100980.66;4994849;28;20058;-57
2021/11/25 08:57:23;;;;;;;22.80;10.43;;;;;;;10.01;47.00;100984.66;4995484;28;20038;-56
2021/11/25 08:59:49;;;;;;;23.55;10.23;;;;;;;10.04;47.25;100973.72;4996684;28;20030;-58
2021/11/25 09:02:14;;;;;;;19.13;10.13;;;;;;;10.10;47.32;100964.34;4995101;28;20034;-57
2021/11/25 09:04:39;;;;;;;25.85;10.35;;;;;;;10.17;47.30;100978.97;4994790;28;20161;-57
2021/11/25 09:07:05;;;;;;;17.92;9.52;;;;;;;10.26;47.55;100986.25;4996072;28;20045;-57
2021/11/25 09:09:30;;;;;;;26.48;10.35;;;;;;;10.29;46.82;100989.56;4995765;28;20045;-57
2021/11/25 09:11:56;;;;;;;23.40;11.10;;;;;;;10.33;48.00;100993.66;4995793;28;20035;-58
2021/11/25 09:14:24;;;;;;;20.95;9.98;;;;;;;10.36;47.22;100989.88;4994434;28;20045;-58
2021/11/25 09:16:49;;;;;;;25.73;9.95;;;;;;;10.49;47.28;101004.00;4995612;28;20110;-58
2021/11/25 09:19:15;;;;;;;19.58;9.82;;;;;;;10.52;47.49;101009.13;4995714;28;20495;-58
2021/11/25 09:21:41;;;;;;;17.42;8.95;;;;;;;10.50;47.51;100994.97;4994232;28;20046;-58
2021/11/25 09:24:07;;;;;;;20.83;10.88;;;;;;;10.54;47.35;101017.88;4995577;28;20403;-57
2021/11/25 09:26:33;;;;;;;21.63;11.30;;;;;;;10.52;47.96;101007.28;4993931;28;20054;-58
2021/11/25 09:28:59;;;;;;;18.83;10.05;;;;;;;10.58;47.58;101019.31;4995393;28;20030;-58
2021/11/25 09:31:26;;;;;;;20.73;10.88;;;;;;;10.58;47.00;101015.81;4994108;28;20406;-58
2021/11/25 09:33:52;;;;;;;20.92;11.05;;;;;;;10.60;48.16;101012.03;4995520;28;20030;-57
2021/11/25 09:36:18;;;;;;;25.58;10.60;;;;;;;10.62;47.56;101015.41;4995445;28;20468;-57
2021/11/25 09:38:43;;;;;;;27.50;11.60;;;;;;;10.70;47.66;101023.69;4977983;28;20042;-58
2021/11/25 09:41:08;;;;;;;19.73;10.73;;;;;;;10.74;47.47;101025.16;4994160;28;20030;-58
2021/11/25 09:43:34;;;;;;;26.95;11.77;;;;;;;10.78;47.66;101026.59;4995213;28;20072;-57
2021/11/25 09:45:59;;;;;;;23.85;9.80;;;;;;;10.79;47.61;101027.44;4995236;28;20462;-57
2021/11/25 09:48:27;;;;;;;19.25;10.05;;;;;;;10.81;47.67;101028.16;4995444;28;20506;-57
2021/11/25 09:50:56;;;;;;;18.35;9.43;;;;;;;10.84;47.82;101025.22;4994022;28;20037;-58
2021/11/25 09:53:25;;;;;;;18.40;9.45;;;;;;;10.87;48.01;101033.88;4994977;28;20038;-58
2021/11/25 09:55:52;;;;;;;24.20;11.20;;;;;;;10.91;48.01;101026.44;4995124;28;20463;-57
2021/11/25 09:58:24;;;;;;;28.20;10.65;;;;;;;10.92;48.30;101028.13;4993486;28;20034;-57
2021/11/25 10:00:57;;;;;;;28.25;10.70;;;;;;;10.99;48.06;101042.72;4994866;28;20033;-57
2021/11/25 10:03:22;;;;;;;26.00;10.02;;;;;;;11.02;47.92;101046.03;4994569;28;20053;-58
2021/11/25 10:05:52;;;;;;;19.35;10.77;;;;;;;11.05;47.85;101034.19;4994738;28;20112;-57
2021/11/25 10:08:36;;;;;;;29.95;12.23;;;;;;;11.06;47.92;101031.38;4993468;28;20112;-59
2021/11/25 10:11:02;;;;;;;24.45;11.57;;;;;;;11.05;47.98;101035.00;4994383;28;20037;-57
2021/11/25 10:13:39;;;;;;;24.17;12.00;;;;;;;11.03;48.08;101018.22;4994580;28;20027;-57
2021/11/25 10:16:10;;;;;;;24.35;11.35;;;;;;;11.04;48.29;101017.25;4994523;28;20022;-57
2021/11/25 10:18:36;;;;;;;26.77;10.70;;;;;;;11.04;47.67;101009.22;4995084;28;20042;-57
2021/11/25 10:21:13;;;;;;;20.67;11.10;;;;;;;11.06;48.31;101014.44;4994827;28;20116;-57
2021/11/25 10:23:39;;;;;;;29.08;11.60;;;;;;;11.11;47.88;101018.44;4994597;28;20483;-58
2021/11/25 10:26:10;;;;;;;22.00;10.43;;;;;;;11.13;47.72;101010.28;4992886;28;20057;-57
2021/11/25 10:28:52;;;;;;;18.80;10.43;;;;;;;11.18;47.74;101012.56;4994582;28;20022;-57
2021/11/25 10:31:30;;;;;;;23.85;11.00;;;;;;;11.29;47.62;101016.03;4993310;28;20034;-57
2021/11/25 10:34:00;;;;;;;29.00;11.50;;;;;;;11.35;47.44;101015.53;4993046;28;20030;-58
2021/11/25 10:36:35;;;;;;;30.63;10.82;;;;;;;11.42;47.60;101011.34;4994682;28;20387;-57
2021/11/25 10:39:36;;;;;;;24.75;11.38;;;;;;;11.49;47.95;101017.03;4993282;28;20072;-58
2021/11/25 10:42:01;;;;;;;27.45;10.32;;;;;;;11.52;48.12;101012.28;4994122;28;20065;-58
2021/11/25 10:44:29;;;;;;;23.92;11.88;;;;;;;11.61;47.71;101018.69;4994062;28;20037;-58
2021/11/25 10:47:07;;;;;;;29.95;12.25;;;;;;;11.58;48.46;101000.16;4994012;28;20033;-57
2021/11/25 10:50:04;;;;;;;29.42;11.93;;;;;;;11.67;48.17;101010.09;4993977;28;20390;-57
2021/11/25 10:52:36;;;;;;;37.33;12.63;;;;;;;11.70;47.94;101001.00;4992373;28;20041;-57
2021/11/25 10:55:08;;;;;;;18.73;10.73;;;;;;;11.70;48.21;100987.56;4994038;28;20026;-58
2021/11/25 10:57:45;;;;;;;27.00;12.70;;;;;;;11.67;48.20;100986.78;4992681;28;20080;-58
2021/11/25 11:00:19;;;;;;;25.17;11.27;;;;;;;11.72;47.78;100989.13;4994028;28;20026;-58
2021/11/25 11:02:44;;;;;;;25.35;12.35;;;;;;;11.79;47.42;100987.59;4992795;28;20053;-57
2021/11/25 11:05:15;;;;;;;23.38;12.02;;;;;;;11.81;48.23;100991.00;4993897;28;20109;-57
2021/11/25 11:07:45;;;;;;;29.63;13.38;;;;;;;11.90;47.99;101005.47;4992536;28;20112;-57
2021/11/25 11:10:25;;;;;;;25.00;12.25;;;;;;;11.95;47.45;101003.25;4994030;28;20557;-59
2021/11/25 11:13:35;;;;;;;22.20;11.85;;;;;;;11.92;47.82;100988.22;4996910;28;20034;-57
2021/11/25 11:15:54;;;;;;;22.30;11.98;;;;;;;12.04;47.25;101003.28;4998450;28;20030;-57
2021/11/25 11:18:43;;;;;;;25.30;12.05;;;;;;;12.05;48.30;100994.25;4997834;28;20026;-58
2021/11/25 11:21:26;;;;;;;25.75;12.60;;;;;;;12.12;47.20;100990.03;4998438;28;20565;-58
2021/11/25 11:23:51;;;;;;;28.37;12.23;;;;;;;12.10;47.70;100981.25;4998640;28;20034;-57
2021/11/25 11:26:17;;;;;;;26.55;13.10;;;;;;;12.17;47.68;100987.78;4996411;28;20299;-58
2021/11/25 11:28:42;;;;;;;28.10;13.15;;;;;;;12.18;47.36;100973.38;4996258;28;20038;-58
2021/11/25 11:31:08;;;;;;;26.48;13.10;;;;;;;12.24;47.62;100971.97;4996279;28;20030;-58
2021/11/25 11:33:33;;;;;;;28.75;13.18;;;;;;;12.28;47.20;100960.81;4980097;28;20034;-59
2021/11/25 11:36:00;;;;;;;27.83;13.30;;;;;;;12.35;47.17;100952.22;4997411;28;20054;-58